sensor_id;sensor_type;location;lat;lon;timestamp;pressure;altitude;pressure_sealevel;temperature;humidity
83635;BME280;73596;49.482;11.238;2023-12-04T00:01:46;98482.66;;;-5.63;85.42
83635;BME280;73596;49.482;11.238;2023-12-04T00:04:12;98472.59;;;-5.63;83.82
83635;BME280;73596;49.482;11.238;2023-12-04T00:06:37;98469.22;;;-5.59;84.74
83635;BME280;73596;49.482;11.238;2023-12-04T00:09:03;98465.88;;;-5.50;85.71
83635;BME280;73596;49.482;11.238;2023-12-04T00:11:28;98460.84;;;-5.47;84.70
83635;BME280;73596;49.482;11.238;2023-12-04T00:13:53;98456.63;;;-5.38;85.90
83635;BME280;73596;49.482;11.238;2023-12-04T00:16:18;98458.28;;;-5.25;86.25
83635;BME280;73596;49.482;11.238;2023-12-04T00:18:44;98453.22;;;-5.22;84.87
83635;BME280;73596;49.482;11.238;2023-12-04T00:21:09;98450.69;;;-5.11;86.55
83635;BME280;73596;49.482;11.238;2023-12-04T00:23:34;98443.09;;;-5.08;86.08
83635;BME280;73596;49.482;11.238;2023-12-04T00:25:59;98445.59;;;-5.02;86.03
83635;BME280;73596;49.482;11.238;2023-12-04T00:28:25;98442.25;;;-5.05;84.34
83635;BME280;73596;49.482;11.238;2023-12-04T00:30:50;98442.28;;;-5.15;83.52
83635;BME280;73596;49.482;11.238;2023-12-04T00:33:15;98440.66;;;-5.29;83.69
83635;BME280;73596;49.482;11.238;2023-12-04T00:35:41;98435.63;;;-5.34;83.83
83635;BME280;73596;49.482;11.238;2023-12-04T00:38:06;98425.53;;;-5.28;85.19
83635;BME280;73596;49.482;11.238;2023-12-04T00:40:31;98423.00;;;-5.23;85.30
83635;BME280;73596;49.482;11.238;2023-12-04T00:42:56;98411.25;;;-5.23;85.28
83635;BME280;73596;49.482;11.238;2023-12-04T00:45:22;98409.63;;;-5.34;82.72
83635;BME280;73596;49.482;11.238;2023-12-04T00:47:47;98393.75;;;-5.47;82.22
83635;BME280;73596;49.482;11.238;2023-12-04T00:50:12;98394.53;;;-5.40;84.33
83635;BME280;73596;49.482;11.238;2023-12-04T00:52:37;98388.66;;;-5.41;84.11
83635;BME280;73596;49.482;11.238;2023-12-04T00:55:03;98381.13;;;-5.39;84.38
83635;BME280;73596;49.482;11.238;2023-12-04T00:57:28;98389.53;;;-5.45;83.06
83635;BME280;73596;49.482;11.238;2023-12-04T00:59:54;98382.00;;;-5.52;82.97
83635;BME280;73596;49.482;11.238;2023-12-04T01:02:19;98384.53;;;-5.57;82.48
83635;BME280;73596;49.482;11.238;2023-12-04T01:04:44;98379.50;;;-5.58;83.17
83635;BME280;73596;49.482;11.238;2023-12-04T01:07:09;98377.84;;;-5.71;82.56
83635;BME280;73596;49.482;11.238;2023-12-04T01:09:35;98376.16;;;-5.74;83.24
83635;BME280;73596;49.482;11.238;2023-12-04T01:12:01;98381.22;;;-5.79;83.46
83635;BME280;73596;49.482;11.238;2023-12-04T01:14:26;98372.03;;;-5.83;82.98
83635;BME280;73596;49.482;11.238;2023-12-04T01:16:51;98369.50;;;-5.81;84.70
83635;BME280;73596;49.482;11.238;2023-12-04T01:19:17;98370.34;;;-5.78;84.36
83635;BME280;73596;49.482;11.238;2023-12-04T01:21:42;98371.19;;;-5.80;85.38
83635;BME280;73596;49.482;11.238;2023-12-04T01:24:07;98374.50;;;-5.77;84.58
83635;BME280;73596;49.482;11.238;2023-12-04T01:26:33;98366.09;;;-5.68;85.77
83635;BME280;73596;49.482;11.238;2023-12-04T01:28:58;98364.41;;;-5.58;86.14
83635;BME280;73596;49.482;11.238;2023-12-04T01:31:23;98369.41;;;-5.51;85.11
83635;BME280;73596;49.482;11.238;2023-12-04T01:33:49;98364.34;;;-5.40;86.37
83635;BME280;73596;49.482;11.238;2023-12-04T01:36:14;98357.66;;;-5.43;84.24
83635;BME280;73596;49.482;11.238;2023-12-04T01:38:39;98346.69;;;-5.36;85.37
83635;BME280;73596;49.482;11.238;2023-12-04T01:41:05;98343.31;;;-5.27;86.17
83635;BME280;73596;49.482;11.238;2023-12-04T01:43:30;98339.94;;;-5.23;85.77
83635;BME280;73596;49.482;11.238;2023-12-04T01:45:56;98327.31;;;-5.19;85.04
83635;BME280;73596;49.482;11.238;2023-12-04T01:48:23;98324.00;;;-5.19;84.92
83635;BME280;73596;49.482;11.238;2023-12-04T01:50:48;98329.06;;;-5.31;83.26
83635;BME280;73596;49.482;11.238;2023-12-04T01:53:15;98323.25;;;-5.45;82.82
83635;BME280;73596;49.482;11.238;2023-12-04T01:55:41;98315.75;;;-5.50;83.57
83635;BME280;73596;49.482;11.238;2023-12-04T01:58:07;98317.44;;;-5.52;84.82
83635;BME280;73596;49.482;11.238;2023-12-04T02:00:32;98312.38;;;-5.53;84.07
83635;BME280;73596;49.482;11.238;2023-12-04T02:02:58;98310.72;;;-5.57;83.44
83635;BME280;73596;49.482;11.238;2023-12-04T02:05:24;98310.72;;;-5.54;84.60
83635;BME280;73596;49.482;11.238;2023-12-04T02:07:51;98301.50;;;-5.61;83.22
83635;BME280;73596;49.482;11.238;2023-12-04T02:10:16;98308.22;;;-5.57;83.99
83635;BME280;73596;49.482;11.238;2023-12-04T02:12:41;98304.84;;;-5.55;84.76
83635;BME280;73596;49.482;11.238;2023-12-04T02:15:07;98303.19;;;-5.60;83.55
83635;BME280;73596;49.482;11.238;2023-12-04T02:17:34;98308.25;;;-5.65;83.71
83635;BME280;73596;49.482;11.238;2023-12-04T02:19:59;98307.41;;;-5.62;84.10
83635;BME280;73596;49.482;11.238;2023-12-04T02:22:24;98297.34;;;-5.68;83.77
83635;BME280;73596;49.482;11.238;2023-12-04T02:24:50;98298.22;;;-5.72;83.73
83635;BME280;73596;49.482;11.238;2023-12-04T02:27:20;98298.19;;;-5.71;84.26
83635;BME280;73596;49.482;11.238;2023-12-04T02:29:50;98298.22;;;-5.72;84.22
83635;BME280;73596;49.482;11.238;2023-12-04T02:32:18;98285.63;;;-5.71;84.41
83635;BME280;73596;49.482;11.238;2023-12-04T02:34:46;98278.09;;;-5.72;85.29
83635;BME280;73596;49.482;11.238;2023-12-04T02:37:14;98280.59;;;-5.71;84.21
83635;BME280;73596;49.482;11.238;2023-12-04T02:39:40;98283.97;;;-5.75;84.33
83635;BME280;73596;49.482;11.238;2023-12-04T02:42:05;98286.47;;;-5.72;84.02
83635;BME280;73596;49.482;11.238;2023-12-04T02:44:31;98283.16;;;-5.77;84.21
83635;BME280;73596;49.482;11.238;2023-12-04T02:46:56;98275.59;;;-5.83;83.93
83635;BME280;73596;49.482;11.238;2023-12-04T02:49:21;98278.13;;;-5.77;84.23
83635;BME280;73596;49.482;11.238;2023-12-04T02:51:47;98274.72;;;-5.71;85.85
83635;BME280;73596;49.482;11.238;2023-12-04T02:54:12;98276.41;;;-5.70;84.49
83635;BME280;73596;49.482;11.238;2023-12-04T02:56:37;98273.88;;;-5.73;83.64
83635;BME280;73596;49.482;11.238;2023-12-04T02:59:02;98266.38;;;-5.83;82.81
83635;BME280;73596;49.482;11.238;2023-12-04T03:01:28;98255.47;;;-5.82;85.05
83635;BME280;73596;49.482;11.238;2023-12-04T03:03:53;98264.69;;;-5.74;85.06
83635;BME280;73596;49.482;11.238;2023-12-04T03:06:18;98253.75;;;-5.69;84.77
83635;BME280;73596;49.482;11.238;2023-12-04T03:08:43;98254.56;;;-5.62;85.63
83635;BME280;73596;49.482;11.238;2023-12-04T03:11:09;98256.22;;;-5.61;84.31
83635;BME280;73596;49.482;11.238;2023-12-04T03:13:34;98256.22;;;-5.57;85.37
83635;BME280;73596;49.482;11.238;2023-12-04T03:15:59;98258.69;;;-5.54;84.50
83635;BME280;73596;49.482;11.238;2023-12-04T03:18:25;98257.06;;;-5.58;83.72
83635;BME280;73596;49.482;11.238;2023-12-04T03:20:51;98253.69;;;-5.55;85.26
83635;BME280;73596;49.482;11.238;2023-12-04T03:23:16;98263.00;;;-5.69;82.05
83635;BME280;73596;49.482;11.238;2023-12-04T03:25:42;98263.00;;;-5.72;82.98
83635;BME280;73596;49.482;11.238;2023-12-04T03:28:07;98267.22;;;-5.84;82.06
83635;BME280;73596;49.482;11.238;2023-12-04T03:30:32;98256.31;;;-5.81;84.16
83635;BME280;73596;49.482;11.238;2023-12-04T03:32:58;98260.47;;;-5.71;85.15
83635;BME280;73596;49.482;11.238;2023-12-04T03:35:23;98258.78;;;-5.64;84.09
83635;BME280;73596;49.482;11.238;2023-12-04T03:37:48;98259.63;;;-5.71;82.53
83635;BME280;73596;49.482;11.238;2023-12-04T03:40:15;98254.66;;;-5.84;81.19
83635;BME280;73596;49.482;11.238;2023-12-04T03:42:40;98253.03;;;-5.85;83.61
83635;BME280;73596;49.482;11.238;2023-12-04T03:45:06;98251.34;;;-5.89;82.57
83635;BME280;73596;49.482;11.238;2023-12-04T03:47:31;98255.56;;;-5.98;80.17
83635;BME280;73596;49.482;11.238;2023-12-04T03:49:57;98254.78;;;-6.11;80.76
83635;BME280;73596;49.482;11.238;2023-12-04T03:52:22;98248.91;;;-6.10;81.72
83635;BME280;73596;49.482;11.238;2023-12-04T03:54:47;98240.53;;;-6.07;83.34
83635;BME280;73596;49.482;11.238;2023-12-04T03:57:13;98248.06;;;-6.06;83.07
83635;BME280;73596;49.482;11.238;2023-12-04T03:59:38;98247.22;;;-6.03;82.08
83635;BME280;73596;49.482;11.238;2023-12-04T04:02:03;98242.19;;;-6.06;82.39
83635;BME280;73596;49.482;11.238;2023-12-04T04:04:28;98236.31;;;-5.98;83.54
83635;BME280;73596;49.482;11.238;2023-12-04T04:06:54;98229.59;;;-5.97;82.17
83635;BME280;73596;49.482;11.238;2023-12-04T04:09:19;98227.97;;;-6.16;79.95
83635;BME280;73596;49.482;11.238;2023-12-04T04:11:45;98222.97;;;-6.15;83.01
83635;BME280;73596;49.482;11.238;2023-12-04T04:14:10;98219.59;;;-6.11;84.07
83635;BME280;73596;49.482;11.238;2023-12-04T04:16:35;98224.59;;;-6.08;82.33
83635;BME280;73596;49.482;11.238;2023-12-04T04:19:01;98217.06;;;-6.09;82.31
83635;BME280;73596;49.482;11.238;2023-12-04T04:21:26;98221.25;;;-6.11;81.63
83635;BME280;73596;49.482;11.238;2023-12-04T04:23:51;98212.91;;;-6.15;81.73
83635;BME280;73596;49.482;11.238;2023-12-04T04:26:18;98205.34;;;-6.16;82.14
83635;BME280;73596;49.482;11.238;2023-12-04T04:28:43;98201.97;;;-6.08;83.85
83635;BME280;73596;49.482;11.238;2023-12-04T04:31:09;98191.06;;;-5.98;84.30
83635;BME280;73596;49.482;11.238;2023-12-04T04:33:34;98189.28;;;-5.82;85.38
83635;BME280;73596;49.482;11.238;2023-12-04T04:35:59;98185.03;;;-5.75;84.28
83635;BME280;73596;49.482;11.238;2023-12-04T04:38:25;98181.69;;;-5.74;83.09
83635;BME280;73596;49.482;11.238;2023-12-04T04:40:50;98181.69;;;-5.78;83.85
83635;BME280;73596;49.482;11.238;2023-12-04T04:43:17;98185.06;;;-5.80;83.33
83635;BME280;73596;49.482;11.238;2023-12-04T04:45:42;98175.91;;;-5.87;82.44
83635;BME280;73596;49.482;11.238;2023-12-04T04:48:07;98182.63;;;-5.88;84.12
83635;BME280;73596;49.482;11.238;2023-12-04T04:50:32;98180.94;;;-5.92;84.38
83635;BME280;73596;49.482;11.238;2023-12-04T04:52:58;98180.09;;;-5.86;84.71
83635;BME280;73596;49.482;11.238;2023-12-04T04:55:23;98179.22;;;-5.82;84.26
83635;BME280;73596;49.482;11.238;2023-12-04T04:57:48;98169.97;;;-5.83;83.71
83635;BME280;73596;49.482;11.238;2023-12-04T05:00:13;98169.97;;;-5.82;84.60
83635;BME280;73596;49.482;11.238;2023-12-04T05:02:41;98164.06;;;-5.76;84.63
83635;BME280;73596;49.482;11.238;2023-12-04T05:05:06;98162.41;;;-5.75;84.30
83635;BME280;73596;49.482;11.238;2023-12-04T05:07:31;98159.84;;;-5.69;85.19
83635;BME280;73596;49.482;11.238;2023-12-04T05:09:57;98143.88;;;-5.65;84.63
83635;BME280;73596;49.482;11.238;2023-12-04T05:12:22;98148.91;;;-5.64;83.99
83635;BME280;73596;49.482;11.238;2023-12-04T05:14:47;98143.06;;;-5.64;83.58
83635;BME280;73596;49.482;11.238;2023-12-04T05:17:12;98143.09;;;-5.70;83.04
83635;BME280;73596;49.482;11.238;2023-12-04T05:19:38;98133.91;;;-5.74;82.17
83635;BME280;73596;49.482;11.238;2023-12-04T05:22:03;98126.34;;;-5.79;83.68
83635;BME280;73596;49.482;11.238;2023-12-04T05:24:28;98126.41;;;-5.82;83.64
83635;BME280;73596;49.482;11.238;2023-12-04T05:26:53;98119.66;;;-5.77;84.06
83635;BME280;73596;49.482;11.238;2023-12-04T05:29:19;98118.81;;;-5.79;83.10
83635;BME280;73596;49.482;11.238;2023-12-04T05:31:44;98125.53;;;-5.78;83.61
83635;BME280;73596;49.482;11.238;2023-12-04T05:34:09;98119.66;;;-5.79;83.63
83635;BME280;73596;49.482;11.238;2023-12-04T05:36:34;98116.31;;;-5.78;83.74
83635;BME280;73596;49.482;11.238;2023-12-04T05:39:00;98110.41;;;-5.73;84.89
83635;BME280;73596;49.482;11.238;2023-12-04T05:41:25;98112.94;;;-5.77;84.05
83635;BME280;73596;49.482;11.238;2023-12-04T05:43:50;98112.13;;;-5.80;83.80
83635;BME280;73596;49.482;11.238;2023-12-04T05:46:15;98103.75;;;-5.81;83.13
83635;BME280;73596;49.482;11.238;2023-12-04T05:48:41;98098.69;;;-5.76;84.36
83635;BME280;73596;49.482;11.238;2023-12-04T05:51:06;98101.16;;;-5.70;84.39
83635;BME280;73596;49.482;11.238;2023-12-04T05:53:31;98097.00;;;-5.72;83.90
83635;BME280;73596;49.482;11.238;2023-12-04T05:55:57;98089.44;;;-5.72;84.37
83635;BME280;73596;49.482;11.238;2023-12-04T05:58:22;98097.78;;;-5.64;85.44
83635;BME280;73596;49.482;11.238;2023-12-04T06:00:47;98095.31;;;-5.72;83.31
83635;BME280;73596;49.482;11.238;2023-12-04T06:03:12;98088.63;;;-5.76;83.89
83635;BME280;73596;49.482;11.238;2023-12-04T06:05:38;98088.63;;;-5.79;84.26
83635;BME280;73596;49.482;11.238;2023-12-04T06:08:03;98094.53;;;-5.80;84.32
83635;BME280;73596;49.482;11.238;2023-12-04T06:10:28;98081.94;;;-5.80;84.43
83635;BME280;73596;49.482;11.238;2023-12-04T06:12:54;98072.75;;;-5.84;84.26
83635;BME280;73596;49.482;11.238;2023-12-04T06:15:19;98071.13;;;-5.85;85.20
83635;BME280;73596;49.482;11.238;2023-12-04T06:17:44;98063.53;;;-5.82;85.47
83635;BME280;73596;49.482;11.238;2023-12-04T06:20:10;98066.03;;;-5.82;84.77
83635;BME280;73596;49.482;11.238;2023-12-04T06:22:36;98061.84;;;-5.83;84.89
83635;BME280;73596;49.482;11.238;2023-12-04T06:25:02;98061.91;;;-5.86;84.75
83635;BME280;73596;49.482;11.238;2023-12-04T06:27:27;98057.06;;;-6.19;84.81
83635;BME280;73596;49.482;11.238;2023-12-04T06:29:53;98060.53;;;-6.38;85.65
83635;BME280;73596;49.482;11.238;2023-12-04T06:32:19;98048.09;;;-6.67;84.92
83635;BME280;73596;49.482;11.238;2023-12-04T06:34:45;98049.03;;;-6.91;85.07
83635;BME280;73596;49.482;11.238;2023-12-04T06:37:12;98054.06;;;-7.00;86.47
83635;BME280;73596;49.482;11.238;2023-12-04T06:39:38;98054.91;;;-7.01;87.75
83635;BME280;73596;49.482;11.238;2023-12-04T06:42:05;98052.41;;;-7.01;88.10
83635;BME280;73596;49.482;11.238;2023-12-04T06:44:31;98051.53;;;-7.03;89.11
83635;BME280;73596;49.482;11.238;2023-12-04T06:46:59;98046.50;;;-6.95;88.65
83635;BME280;73596;49.482;11.238;2023-12-04T06:49:28;98046.47;;;-6.88;89.29
83635;BME280;73596;49.482;11.238;2023-12-04T06:51:54;98052.34;;;-6.84;89.49
83635;BME280;73596;49.482;11.238;2023-12-04T06:54:20;98048.97;;;-6.79;89.42
83635;BME280;73596;49.482;11.238;2023-12-04T06:56:45;98054.00;;;-6.77;89.66
83635;BME280;73596;49.482;11.238;2023-12-04T06:59:10;98048.13;;;-6.75;89.69
83635;BME280;73596;49.482;11.238;2023-12-04T07:01:35;98041.41;;;-6.73;89.33
83635;BME280;73596;49.482;11.238;2023-12-04T07:04:01;98041.41;;;-6.71;89.60
83635;BME280;73596;49.482;11.238;2023-12-04T07:06:26;98038.91;;;-6.73;89.16
83635;BME280;73596;49.482;11.238;2023-12-04T07:08:51;98038.09;;;-6.73;89.44
83635;BME280;73596;49.482;11.238;2023-12-04T07:11:16;98032.25;;;-6.78;89.13
83635;BME280;73596;49.482;11.238;2023-12-04T07:13:42;98038.13;;;-6.81;88.95
83635;BME280;73596;49.482;11.238;2023-12-04T07:16:07;98040.53;;;-6.63;91.24
83635;BME280;73596;49.482;11.238;2023-12-04T07:18:33;98052.25;;;-6.56;91.51
83635;BME280;73596;49.482;11.238;2023-12-04T07:20:58;98048.84;;;-6.44;90.89
83635;BME280;73596;49.482;11.238;2023-12-04T07:23:23;98041.25;;;-6.35;90.69
83635;BME280;73596;49.482;11.238;2023-12-04T07:25:49;98043.72;;;-6.26;90.63
83635;BME280;73596;49.482;11.238;2023-12-04T07:28:14;98038.66;;;-6.18;90.16
83635;BME280;73596;49.482;11.238;2023-12-04T07:30:39;98031.88;;;-6.09;89.65
83635;BME280;73596;49.482;11.238;2023-12-04T07:33:04;98030.97;;;-6.02;89.78
83635;BME280;73596;49.482;11.238;2023-12-04T07:35:30;98030.97;;;-5.96;88.98
83635;BME280;73596;49.482;11.238;2023-12-04T07:37:55;98029.25;;;-5.91;88.82
83635;BME280;73596;49.482;11.238;2023-12-04T07:40:20;98026.69;;;-5.85;88.86
83635;BME280;73596;49.482;11.238;2023-12-04T07:42:48;98019.91;;;-5.80;88.21
83635;BME280;73596;49.482;11.238;2023-12-04T07:45:13;98016.53;;;-5.75;88.32
83635;BME280;73596;49.482;11.238;2023-12-04T07:47:39;98003.13;;;-5.74;88.00
83635;BME280;73596;49.482;11.238;2023-12-04T07:50:05;98002.25;;;-5.73;87.66
83635;BME280;73596;49.482;11.238;2023-12-04T07:52:31;97996.34;;;-5.71;87.95
83635;BME280;73596;49.482;11.238;2023-12-04T07:54:56;98000.56;;;-5.71;87.80
83635;BME280;73596;49.482;11.238;2023-12-04T07:57:22;97999.72;;;-5.70;88.39
83635;BME280;73596;49.482;11.238;2023-12-04T07:59:47;98005.56;;;-5.71;88.00
83635;BME280;73596;49.482;11.238;2023-12-04T08:02:13;98005.66;;;-5.81;88.11
83635;BME280;73596;49.482;11.238;2023-12-04T08:04:38;98011.63;;;-5.88;87.93
83635;BME280;73596;49.482;11.238;2023-12-04T08:07:03;98011.75;;;-6.06;86.43
83635;BME280;73596;49.482;11.238;2023-12-04T08:09:29;98010.94;;;-6.05;88.01
83635;BME280;73596;49.482;11.238;2023-12-04T08:11:54;98004.13;;;-5.97;88.90
83635;BME280;73596;49.482;11.238;2023-12-04T08:14:19;98007.44;;;-5.92;89.03
83635;BME280;73596;49.482;11.238;2023-12-04T08:16:44;98004.91;;;-5.86;88.75
83635;BME280;73596;49.482;11.238;2023-12-04T08:19:10;97997.34;;;-5.86;88.91
83635;BME280;73596;49.482;11.238;2023-12-04T08:21:35;98004.94;;;-5.87;88.54
83635;BME280;73596;49.482;11.238;2023-12-04T08:24:00;97994.03;;;-5.88;88.99
83635;BME280;73596;49.482;11.238;2023-12-04T08:26:25;97995.63;;;-5.82;88.88
83635;BME280;73596;49.482;11.238;2023-12-04T08:28:51;97992.22;;;-5.78;89.06
83635;BME280;73596;49.482;11.238;2023-12-04T08:31:17;97993.84;;;-5.69;88.47
83635;BME280;73596;49.482;11.238;2023-12-04T08:33:43;97990.41;;;-5.59;88.52
83635;BME280;73596;49.482;11.238;2023-12-04T08:36:09;97985.31;;;-5.56;88.25
83635;BME280;73596;49.482;11.238;2023-12-04T08:38:35;97981.94;;;-5.54;88.74
83635;BME280;73596;49.482;11.238;2023-12-04T08:41:01;97981.94;;;-5.52;88.95
83635;BME280;73596;49.482;11.238;2023-12-04T08:43:26;97984.41;;;-5.48;89.01
83635;BME280;73596;49.482;11.238;2023-12-04T08:45:52;97979.31;;;-5.40;88.64
83635;BME280;73596;49.482;11.238;2023-12-04T08:48:17;97979.13;;;-5.24;88.31
83635;BME280;73596;49.482;11.238;2023-12-04T08:50:42;97973.16;;;-5.13;87.55
83635;BME280;73596;49.482;11.238;2023-12-04T08:53:07;97973.94;;;-5.10;88.26
83635;BME280;73596;49.482;11.238;2023-12-04T08:55:33;97970.50;;;-5.01;88.18
83635;BME280;73596;49.482;11.238;2023-12-04T08:57:58;97971.31;;;-4.99;88.28
83635;BME280;73596;49.482;11.238;2023-12-04T09:00:23;97973.88;;;-5.01;87.75
83635;BME280;73596;49.482;11.238;2023-12-04T09:02:48;97973.03;;;-5.01;87.75
83635;BME280;73596;49.482;11.238;2023-12-04T09:05:14;97978.84;;;-4.96;87.98
83635;BME280;73596;49.482;11.238;2023-12-04T09:07:39;97974.66;;;-4.96;87.93
83635;BME280;73596;49.482;11.238;2023-12-04T09:10:05;97971.25;;;-4.93;88.19
83635;BME280;73596;49.482;11.238;2023-12-04T09:12:30;97973.78;;;-4.93;88.10
83635;BME280;73596;49.482;11.238;2023-12-04T09:14:56;97969.50;;;-4.87;87.02
83635;BME280;73596;49.482;11.238;2023-12-04T09:17:21;97973.63;;;-4.81;87.66
83635;BME280;73596;49.482;11.238;2023-12-04T09:19:46;97970.22;;;-4.80;87.04
83635;BME280;73596;49.482;11.238;2023-12-04T09:22:12;97971.88;;;-4.76;87.33
83635;BME280;73596;49.482;11.238;2023-12-04T09:24:37;97973.50;;;-4.72;87.79
83635;BME280;73596;49.482;11.238;2023-12-04T09:27:02;97965.88;;;-4.66;87.62
83635;BME280;73596;49.482;11.238;2023-12-04T09:29:27;97970.81;;;-4.60;87.01
83635;BME280;73596;49.482;11.238;2023-12-04T09:31:53;97968.97;;;-4.47;88.13
83635;BME280;73596;49.482;11.238;2023-12-04T09:34:18;97946.28;;;-4.47;86.80
83635;BME280;73596;49.482;11.238;2023-12-04T09:36:45;97949.47;;;-4.33;85.86
83635;BME280;73596;49.482;11.238;2023-12-04T09:39:10;97952.72;;;-4.25;84.54
83635;BME280;73596;49.482;11.238;2023-12-04T09:41:37;97940.91;;;-4.23;84.18
83635;BME280;73596;49.482;11.238;2023-12-04T09:44:03;97939.94;;;-4.16;84.03
83635;BME280;73596;49.482;11.238;2023-12-04T09:46:29;97947.31;;;-4.04;82.88
83635;BME280;73596;49.482;11.238;2023-12-04T09:48:56;97951.53;;;-4.03;82.09
83635;BME280;73596;49.482;11.238;2023-12-04T09:51:22;97933.81;;;-4.00;82.37
83635;BME280;73596;49.482;11.238;2023-12-04T09:53:49;97936.25;;;-3.96;82.34
83635;BME280;73596;49.482;11.238;2023-12-04T09:56:15;97932.03;;;-3.94;81.54
83635;BME280;73596;49.482;11.238;2023-12-04T09:58:41;97933.69;;;-3.93;81.52
83635;BME280;73596;49.482;11.238;2023-12-04T10:01:08;97925.13;;;-3.82;80.90
83635;BME280;73596;49.482;11.238;2023-12-04T10:03:34;97925.97;;;-3.83;80.76
83635;BME280;73596;49.482;11.238;2023-12-04T10:06:00;97926.84;;;-3.84;80.17
83635;BME280;73596;49.482;11.238;2023-12-04T10:08:25;97922.59;;;-3.82;80.29
83635;BME280;73596;49.482;11.238;2023-12-04T10:10:51;97925.13;;;-3.82;81.04
83635;BME280;73596;49.482;11.238;2023-12-04T10:13:16;97929.31;;;-3.83;80.55
83635;BME280;73596;49.482;11.238;2023-12-04T10:15:48;97931.81;;;-3.80;80.75
83635;BME280;73596;49.482;11.238;2023-12-04T10:18:30;97919.94;;;-3.75;80.76
83635;BME280;73596;49.482;11.238;2023-12-04T10:20:57;97920.69;;;-3.71;80.06
83635;BME280;73596;49.482;11.238;2023-12-04T10:23:36;97905.56;;;-3.71;80.52
83635;BME280;73596;49.482;11.238;2023-12-04T10:26:01;97906.31;;;-3.66;80.13
83635;BME280;73596;49.482;11.238;2023-12-04T10:28:27;97897.81;;;-3.61;80.79
83635;BME280;73596;49.482;11.238;2023-12-04T10:30:52;97890.16;;;-3.56;80.19
83635;BME280;73596;49.482;11.238;2023-12-04T10:33:18;97889.19;;;-3.49;80.33
83635;BME280;73596;49.482;11.238;2023-12-04T10:35:45;97876.53;;;-3.48;79.97
83635;BME280;73596;49.482;11.238;2023-12-04T10:38:12;97863.13;;;-3.50;79.66
83635;BME280;73596;49.482;11.238;2023-12-04T10:40:39;97854.66;;;-3.47;80.19
83635;BME280;73596;49.482;11.238;2023-12-04T10:43:17;97846.19;;;-3.46;79.69
83635;BME280;73596;49.482;11.238;2023-12-04T10:45:44;97832.78;;;-3.48;80.41
83635;BME280;73596;49.482;11.238;2023-12-04T10:48:11;97829.41;;;-3.49;79.98
83635;BME280;73596;49.482;11.238;2023-12-04T10:50:38;97819.31;;;-3.49;80.29
83635;BME280;73596;49.482;11.238;2023-12-04T10:53:07;97807.53;;;-3.47;79.59
83635;BME280;73596;49.482;11.238;2023-12-04T10:55:34;97806.59;;;-3.43;80.27
83635;BME280;73596;49.482;11.238;2023-12-04T10:58:01;97803.13;;;-3.37;79.83
83635;BME280;73596;49.482;11.238;2023-12-04T11:00:35;97793.72;;;-3.31;80.49
83635;BME280;73596;49.482;11.238;2023-12-04T11:03:05;97792.72;;;-3.24;81.24
83635;BME280;73596;49.482;11.238;2023-12-04T11:05:35;97795.16;;;-3.19;81.20
83635;BME280;73596;49.482;11.238;2023-12-04T11:08:02;97791.66;;;-3.13;79.33
83635;BME280;73596;49.482;11.238;2023-12-04T11:10:31;97795.84;;;-3.12;79.05
83635;BME280;73596;49.482;11.238;2023-12-04T11:13:12;97797.44;;;-3.08;78.54
83635;BME280;73596;49.482;11.238;2023-12-04T11:15:40;97788.97;;;-3.06;80.70
83635;BME280;73596;49.482;11.238;2023-12-04T11:18:09;97777.94;;;-3.03;79.02
83635;BME280;73596;49.482;11.238;2023-12-04T11:20:42;97769.59;;;-3.05;80.17
83635;BME280;73596;49.482;11.238;2023-12-04T11:23:09;97766.16;;;-3.01;78.38
83635;BME280;73596;49.482;11.238;2023-12-04T11:25:34;97765.31;;;-3.02;77.38
83635;BME280;73596;49.482;11.238;2023-12-04T11:28:01;97761.81;;;-2.96;78.83
83635;BME280;73596;49.482;11.238;2023-12-04T11:30:27;97759.28;;;-2.96;77.43
83635;BME280;73596;49.482;11.238;2023-12-04T11:32:54;97757.66;;;-2.99;80.11
83635;BME280;73596;49.482;11.238;2023-12-04T11:35:25;97739.88;;;-2.94;80.93
83635;BME280;73596;49.482;11.238;2023-12-04T11:37:52;97733.06;;;-2.92;80.79
83635;BME280;73596;49.482;11.238;2023-12-04T11:40:18;97734.81;;;-2.94;80.91
83635;BME280;73596;49.482;11.238;2023-12-04T11:42:44;97726.34;;;-2.93;80.47
83635;BME280;73596;49.482;11.238;2023-12-04T11:45:10;97727.91;;;-2.88;79.29
83635;BME280;73596;49.482;11.238;2023-12-04T11:47:54;97727.91;;;-2.86;80.21
83635;BME280;73596;49.482;11.238;2023-12-04T11:50:19;97745.59;;;-2.88;80.66
83635;BME280;73596;49.482;11.238;2023-12-04T11:52:46;97739.66;;;-2.85;80.82
83635;BME280;73596;49.482;11.238;2023-12-04T11:55:11;97737.13;;;-2.85;80.04
83635;BME280;73596;49.482;11.238;2023-12-04T11:57:40;97729.66;;;-2.90;79.47
83635;BME280;73596;49.482;11.238;2023-12-04T12:03:00;97712.91;;;-2.94;79.95
83635;BME280;73596;49.482;11.238;2023-12-04T12:05:27;97712.94;;;-2.95;79.35
83635;BME280;73596;49.482;11.238;2023-12-04T12:07:52;97722.13;;;-2.93;78.86
83635;BME280;73596;49.482;11.238;2023-12-04T12:10:17;97722.97;;;-2.92;79.50
83635;BME280;73596;49.482;11.238;2023-12-04T12:12:43;97717.91;;;-2.92;79.82
83635;BME280;73596;49.482;11.238;2023-12-04T12:15:12;97706.13;;;-2.92;78.92
83635;BME280;73596;49.482;11.238;2023-12-04T12:17:38;97708.72;;;-2.95;78.94
83635;BME280;73596;49.482;11.238;2023-12-04T12:20:07;97711.28;;;-2.96;79.28
83635;BME280;73596;49.482;11.238;2023-12-04T12:22:34;97711.25;;;-2.95;79.40
83635;BME280;73596;49.482;11.238;2023-12-04T12:24:59;97712.03;;;-2.93;79.13
83635;BME280;73596;49.482;11.238;2023-12-04T12:27:25;97712.09;;;-2.94;79.22
83635;BME280;73596;49.482;11.238;2023-12-04T12:29:50;97701.13;;;-2.95;79.42
83635;BME280;73596;49.482;11.238;2023-12-04T12:32:15;97709.50;;;-2.93;78.80
83635;BME280;73596;49.482;11.238;2023-12-04T12:34:41;97713.47;;;-2.83;82.04
83635;BME280;73596;49.482;11.238;2023-12-04T12:37:08;97706.66;;;-2.79;81.30
83635;BME280;73596;49.482;11.238;2023-12-04T12:39:35;97705.03;;;-2.82;81.40
83635;BME280;73596;49.482;11.238;2023-12-04T12:42:01;97705.81;;;-2.80;79.67
83635;BME280;73596;49.482;11.238;2023-12-04T12:44:27;97701.53;;;-2.76;80.45
83635;BME280;73596;49.482;11.238;2023-12-04T12:46:53;97694.94;;;-2.82;82.31